Time;durP1;ratioP1;P1;durP2;ratioP2;P2;SDS_P1;SDS_P2;PMS_P1;PMS_P2;Temp;Humidity;BMP_temperature;BMP_pressure;BME280_temperature;BME280_humidity;BME280_pressure;Samples;Min_cycle;Max_cycle;Signal;HPM_P1;HPM_P2
2023/12/02 00:02:23;;;;;;;77.15;29.00;;;;;;;;;;4993811;28;20030;-75
2023/12/02 00:04:52;;;;;;;75.47;28.40;;;;;;;;;;4992590;28;20145;-75
2023/12/02 00:07:18;;;;;;;73.97;30.02;;;;;;;;;;5011934;28;20127;-75
2023/12/02 00:09:44;;;;;;;68.70;28.05;;;;;;;;;;5009873;28;20038;-74
2023/12/02 00:12:11;;;;;;;72.47;29.90;;;;;;;;;;4992346;28;20447;-75
2023/12/02 00:14:37;;;;;;;70.80;30.08;;;;;;;;;;4993449;28;20030;-75
2023/12/02 00:17:03;;;;;;;73.32;30.20;;;;;;;;;;4991327;28;20049;-75
2023/12/02 00:19:29;;;;;;;75.18;29.90;;;;;;;;;;4991676;28;20026;-75
2023/12/02 00:21:55;;;;;;;69.25;29.77;;;;;;;;;;4991918;28;20038;-76
2023/12/02 00:24:21;;;;;;;71.68;29.38;;;;;;;;;;5009207;28;20021;-75
2023/12/02 00:26:47;;;;;;;67.90;27.95;;;;;;;;;;4991730;28;20111;-75
2023/12/02 00:29:13;;;;;;;75.97;29.10;;;;;;;;;;4991898;28;20030;-76
2023/12/02 00:31:40;;;;;;;72.35;29.83;;;;;;;;;;5008774;28;20046;-76
2023/12/02 00:34:06;;;;;;;72.60;30.10;;;;;;;;;;4991486;28;20128;-76
2023/12/02 00:36:32;;;;;;;69.72;29.20;;;;;;;;;;5008636;28;20022;-75
2023/12/02 00:38:58;;;;;;;78.75;31.25;;;;;;;;;;5008318;28;20462;-75
2023/12/02 00:41:25;;;;;;;83.93;33.35;;;;;;;;;;4991336;28;20204;-75
2023/12/02 00:43:51;;;;;;;81.32;32.00;;;;;;;;;;4991151;28;20549;-75
2023/12/02 00:46:17;;;;;;;72.28;28.73;;;;;;;;;;5009226;28;20054;-75
2023/12/02 00:48:44;;;;;;;125.72;52.85;;;;;;;;;;5007121;28;20037;-75
2023/12/02 00:51:11;;;;;;;84.38;35.05;;;;;;;;;;5009628;28;20068;-75
2023/12/02 00:53:37;;;;;;;78.68;30.73;;;;;;;;;;5008298;28;20116;-76
2023/12/02 00:56:03;;;;;;;79.03;30.23;;;;;;;;;;5006156;28;20109;-75
2023/12/02 00:58:29;;;;;;;76.55;28.20;;;;;;;;;;5008463;28;20026;-74
2023/12/02 01:00:55;;;;;;;73.22;28.58;;;;;;;;;;5008017;28;20471;-76
2023/12/02 01:03:21;;;;;;;77.07;28.85;;;;;;;;;;5007817;28;20038;-74
2023/12/02 01:05:47;;;;;;;82.28;29.58;;;;;;;;;;4989632;28;20045;-75
2023/12/02 01:08:13;;;;;;;80.43;29.98;;;;;;;;;;4990818;28;20029;-76
2023/12/02 01:10:40;;;;;;;76.25;29.83;;;;;;;;;;5006991;28;20033;-74
2023/12/02 01:13:06;;;;;;;85.70;29.88;;;;;;;;;;5008613;28;20496;-75
2023/12/02 01:15:32;;;;;;;81.47;30.52;;;;;;;;;;4990708;28;20033;-76
2023/12/02 01:17:58;;;;;;;76.90;30.13;;;;;;;;;;5009073;28;20121;-75
2023/12/02 01:20:24;;;;;;;83.82;30.73;;;;;;;;;;5008519;28;20165;-75
2023/12/02 01:22:51;;;;;;;81.85;30.50;;;;;;;;;;4998237;28;20491;-75
2023/12/02 01:25:17;;;;;;;80.55;29.55;;;;;;;;;;4992047;28;20042;-75
2023/12/02 01:27:43;;;;;;;84.05;30.70;;;;;;;;;;4992599;28;20041;-75
2023/12/02 01:30:09;;;;;;;82.43;29.98;;;;;;;;;;5010356;28;20446;-75
2023/12/02 01:32:35;;;;;;;85.95;31.25;;;;;;;;;;5008053;28;20088;-75
2023/12/02 01:35:02;;;;;;;86.82;30.00;;;;;;;;;;5018860;28;20033;-75
2023/12/02 01:37:28;;;;;;;80.97;29.40;;;;;;;;;;4993806;28;20130;-74
2023/12/02 01:39:54;;;;;;;86.30;31.65;;;;;;;;;;5000101;28;20498;-74
2023/12/02 01:42:20;;;;;;;76.60;30.40;;;;;;;;;;4998729;28;20056;-74
2023/12/02 01:44:46;;;;;;;82.35;32.25;;;;;;;;;;5013285;28;20731;-76
2023/12/02 01:47:12;;;;;;;86.53;30.52;;;;;;;;;;5000578;28;20034;-76
2023/12/02 01:49:39;;;;;;;83.47;30.77;;;;;;;;;;5020040;28;20026;-76
2023/12/02 01:52:06;;;;;;;82.35;31.58;;;;;;;;;;5012980;28;20026;-76
2023/12/02 01:54:32;;;;;;;74.07;30.30;;;;;;;;;;4997249;28;20010;-74
2023/12/02 01:56:58;;;;;;;77.60;30.08;;;;;;;;;;5015627;28;20124;-75
2023/12/02 01:59:29;;;;;;;;;;;;;;;;;;5013114;28;20439;-76
2023/12/02 02:01:55;;;;;;;80.65;30.52;;;;;;;;;;5012353;28;19940;-75
2023/12/02 02:04:22;;;;;;;86.18;30.88;;;;;;;;;;4996568;28;20045;-75
2023/12/02 02:06:48;;;;;;;75.13;28.90;;;;;;;;;;5012565;28;20034;-75
2023/12/02 02:09:14;;;;;;;77.97;31.02;;;;;;;;;;5008504;28;20097;-75
2023/12/02 02:11:41;;;;;;;84.15;31.17;;;;;;;;;;4999832;28;20449;-75
2023/12/02 02:14:07;;;;;;;84.22;30.50;;;;;;;;;;5011583;28;20509;-75
2023/12/02 02:16:33;;;;;;;82.88;30.25;;;;;;;;;;5012693;28;20238;-75
2023/12/02 02:18:59;;;;;;;86.15;29.50;;;;;;;;;;5013513;28;20050;-75
2023/12/02 02:21:26;;;;;;;82.53;29.45;;;;;;;;;;5015420;28;20112;-75
2023/12/02 02:23:52;;;;;;;79.43;30.83;;;;;;;;;;4997037;28;20113;-76
2023/12/02 02:26:18;;;;;;;81.97;28.00;;;;;;;;;;5012569;28;20029;-76
2023/12/02 02:28:45;;;;;;;80.20;27.77;;;;;;;;;;5012212;28;20083;-75
2023/12/02 02:31:11;;;;;;;77.40;28.48;;;;;;;;;;4992458;28;20054;-75
2023/12/02 02:33:37;;;;;;;79.88;29.08;;;;;;;;;;4991719;28;20040;-74
2023/12/02 02:36:03;;;;;;;76.97;27.98;;;;;;;;;;5006772;28;20037;-76
2023/12/02 02:38:30;;;;;;;82.30;28.83;;;;;;;;;;4992107;28;20181;-75
2023/12/02 02:40:56;;;;;;;78.90;29.17;;;;;;;;;;4989454;28;20040;-75
2023/12/02 02:43:22;;;;;;;73.55;27.20;;;;;;;;;;5007590;28;20038;-75
2023/12/02 02:45:49;;;;;;;80.93;29.10;;;;;;;;;;5003211;28;20058;-76
2023/12/02 02:48:15;;;;;;;85.90;30.38;;;;;;;;;;4993782;28;20125;-75
2023/12/02 02:50:43;;;;;;;90.38;30.02;;;;;;;;;;4990298;28;20038;-76
2023/12/02 02:53:09;;;;;;;95.35;31.02;;;;;;;;;;4991965;28;20064;-75
2023/12/02 02:55:35;;;;;;;91.18;29.45;;;;;;;;;;4995634;28;20026;-77
2023/12/02 02:58:01;;;;;;;78.65;27.08;;;;;;;;;;4989794;28;20049;-77
2023/12/02 03:00:27;;;;;;;82.70;28.60;;;;;;;;;;5000584;28;20034;-75
2023/12/02 03:02:53;;;;;;;75.95;27.38;;;;;;;;;;4992006;28;20057;-76
2023/12/02 03:05:19;;;;;;;83.13;27.17;;;;;;;;;;5002521;28;20038;-76
2023/12/02 03:07:47;;;;;;;83.70;28.90;;;;;;;;;;4995617;28;20062;-77
2023/12/02 03:10:13;;;;;;;86.18;29.13;;;;;;;;;;4999279;28;20460;-75
2023/12/02 03:12:39;;;;;;;87.55;28.42;;;;;;;;;;5000219;28;20103;-77
2023/12/02 03:15:05;;;;;;;87.68;28.45;;;;;;;;;;5001473;28;20072;-76
2023/12/02 03:17:31;;;;;;;98.38;30.42;;;;;;;;;;4998226;28;20038;-76
2023/12/02 03:19:58;;;;;;;95.43;29.10;;;;;;;;;;4993873;28;20058;-75
2023/12/02 03:22:24;;;;;;;105.07;33.67;;;;;;;;;;4992468;28;20081;-75
2023/12/02 03:24:51;;;;;;;99.15;31.42;;;;;;;;;;4992456;28;20042;-77
2023/12/02 03:27:17;;;;;;;115.63;36.33;;;;;;;;;;4992073;28;20038;-75
2023/12/02 03:29:43;;;;;;;103.90;32.03;;;;;;;;;;4996489;28;20044;-75
2023/12/02 03:32:09;;;;;;;106.53;32.17;;;;;;;;;;4997701;28;20054;-75
2023/12/02 03:34:35;;;;;;;95.97;31.98;;;;;;;;;;4990456;28;20062;-76
2023/12/02 03:37:03;;;;;;;94.13;30.40;;;;;;;;;;4993381;28;20044;-76
2023/12/02 03:39:29;;;;;;;105.57;32.50;;;;;;;;;;4993866;28;20034;-76
2023/12/02 03:41:55;;;;;;;103.10;30.83;;;;;;;;;;4999445;28;20096;-75
2023/12/02 03:44:22;;;;;;;98.53;30.95;;;;;;;;;;4990942;28;20031;-76
2023/12/02 03:46:48;;;;;;;104.45;32.28;;;;;;;;;;4997587;28;20042;-75
2023/12/02 03:49:14;;;;;;;107.10;31.33;;;;;;;;;;4996456;28;20113;-75
2023/12/02 03:51:40;;;;;;;98.63;30.60;;;;;;;;;;4985527;28;20030;-76
2023/12/02 03:54:07;;;;;;;98.13;31.33;;;;;;;;;;4981911;28;20026;-75
2023/12/02 03:56:34;;;;;;;102.78;30.15;;;;;;;;;;4988932;28;20027;-75
2023/12/02 03:59:00;;;;;;;98.13;32.25;;;;;;;;;;4990665;28;20038;-76
2023/12/02 04:01:26;;;;;;;95.47;30.25;;;;;;;;;;4995946;28;20022;-76
2023/12/02 04:03:52;;;;;;;107.88;30.38;;;;;;;;;;4988679;28;20026;-76
2023/12/02 04:06:18;;;;;;;88.45;29.33;;;;;;;;;;5007961;28;20023;-76
2023/12/02 04:08:45;;;;;;;97.18;29.55;;;;;;;;;;4989626;28;20038;-76
2023/12/02 04:11:11;;;;;;;89.55;29.05;;;;;;;;;;4992176;28;20053;-77
2023/12/02 04:13:37;;;;;;;89.85;28.83;;;;;;;;;;4989050;28;20018;-75
2023/12/02 04:16:05;;;;;;;96.07;31.13;;;;;;;;;;4997907;28;20343;-75
2023/12/02 04:18:33;;;;;;;91.82;28.67;;;;;;;;;;5002547;28;20038;-76
2023/12/02 04:21:00;;;;;;;90.70;28.65;;;;;;;;;;5001835;28;20047;-76
2023/12/02 04:23:26;;;;;;;92.60;28.27;;;;;;;;;;4990840;28;20090;-77
2023/12/02 04:25:52;;;;;;;95.93;29.88;;;;;;;;;;5005425;28;20052;-76
2023/12/02 04:28:18;;;;;;;103.93;31.20;;;;;;;;;;4989126;28;20122;-76
2023/12/02 04:30:45;;;;;;;109.80;30.92;;;;;;;;;;4998416;28;20074;-76
2023/12/02 04:33:11;;;;;;;100.40;30.63;;;;;;;;;;5009939;28;20041;-76
2023/12/02 04:35:37;;;;;;;99.88;31.42;;;;;;;;;;5009901;28;20068;-76
2023/12/02 04:38:04;;;;;;;119.57;34.42;;;;;;;;;;5021115;28;20041;-76
2023/12/02 04:40:31;;;;;;;108.00;33.00;;;;;;;;;;5028621;28;20041;-76
2023/12/02 04:42:57;;;;;;;108.63;32.35;;;;;;;;;;4993006;28;20034;-75
2023/12/02 04:45:23;;;;;;;117.60;32.20;;;;;;;;;;5008470;28;20084;-77
2023/12/02 04:47:49;;;;;;;116.13;33.40;;;;;;;;;;4993780;28;20425;-76
2023/12/02 04:50:15;;;;;;;123.80;33.05;;;;;;;;;;5002735;28;20348;-77
2023/12/02 04:52:42;;;;;;;115.00;34.80;;;;;;;;;;4995926;28;20041;-76
2023/12/02 04:55:08;;;;;;;129.35;34.70;;;;;;;;;;5017513;28;20056;-77
2023/12/02 04:57:34;;;;;;;124.32;34.53;;;;;;;;;;4996082;28;20030;-77
2023/12/02 05:00:00;;;;;;;135.75;36.50;;;;;;;;;;5009435;28;20223;-76
2023/12/02 05:02:26;;;;;;;137.05;37.20;;;;;;;;;;4996463;28;20033;-77
2023/12/02 05:04:52;;;;;;;130.00;36.85;;;;;;;;;;4978090;28;20085;-76
2023/12/02 05:07:18;;;;;;;136.02;37.97;;;;;;;;;;5013509;28;20391;-77
2023/12/02 05:09:44;;;;;;;131.25;37.95;;;;;;;;;;5008897;28;20037;-76
2023/12/02 05:12:11;;;;;;;128.48;37.78;;;;;;;;;;5012099;28;20153;-77
2023/12/02 05:14:38;;;;;;;134.60;39.67;;;;;;;;;;5003716;28;20363;-76
2023/12/02 05:17:04;;;;;;;137.32;37.40;;;;;;;;;;5009081;28;20044;-76
2023/12/02 05:19:30;;;;;;;127.88;36.15;;;;;;;;;;4996040;28;20308;-77
2023/12/02 05:21:57;;;;;;;125.68;35.78;;;;;;;;;;5002766;28;20104;-76
2023/12/02 05:24:23;;;;;;;125.75;37.95;;;;;;;;;;5003451;28;20049;-77
2023/12/02 05:26:49;;;;;;;131.85;35.67;;;;;;;;;;5008966;28;20041;-77
2023/12/02 05:29:15;;;;;;;133.40;37.13;;;;;;;;;;4983274;28;20037;-76
2023/12/02 05:31:41;;;;;;;141.80;39.35;;;;;;;;;;5007140;28;20529;-77
2023/12/02 05:34:07;;;;;;;132.25;36.28;;;;;;;;;;4999171;28;20033;-76
2023/12/02 05:36:34;;;;;;;128.18;36.45;;;;;;;;;;5031510;28;20120;-77
2023/12/02 05:39:00;;;;;;;129.98;36.53;;;;;;;;;;5016226;28;20045;-76
2023/12/02 05:41:26;;;;;;;119.25;36.50;;;;;;;;;;5030270;28;20046;-76
2023/12/02 05:43:53;;;;;;;125.78;36.83;;;;;;;;;;5015855;28;20056;-76
2023/12/02 05:46:19;;;;;;;115.20;33.67;;;;;;;;;;5022482;28;20113;-76
2023/12/02 05:48:45;;;;;;;116.45;35.28;;;;;;;;;;5015538;28;20037;-76
2023/12/02 05:51:14;;;;;;;121.47;36.42;;;;;;;;;;4998247;28;20050;-76
2023/12/02 05:53:41;;;;;;;123.53;35.80;;;;;;;;;;5001621;28;20520;-77
2023/12/02 05:56:08;;;;;;;131.40;36.80;;;;;;;;;;5013401;28;20042;-77
2023/12/02 05:58:35;;;;;;;143.80;37.47;;;;;;;;;;5021988;28;20025;-76
2023/12/02 06:01:01;;;;;;;137.93;36.63;;;;;;;;;;5005993;28;20034;-78
2023/12/02 06:03:27;;;;;;;128.48;36.20;;;;;;;;;;5024092;28;20044;-76
2023/12/02 06:05:54;;;;;;;138.25;38.83;;;;;;;;;;5028979;28;20041;-76
2023/12/02 06:08:21;;;;;;;141.35;38.67;;;;;;;;;;5007505;28;20033;-77
2023/12/02 06:10:47;;;;;;;150.48;38.60;;;;;;;;;;5031355;28;20044;-76
2023/12/02 06:13:14;;;;;;;134.23;36.30;;;;;;;;;;4999966;28;20033;-78
2023/12/02 06:15:40;;;;;;;129.30;38.30;;;;;;;;;;5017637;28;20034;-77
2023/12/02 06:18:06;;;;;;;140.02;37.80;;;;;;;;;;5024718;28;20040;-76
2023/12/02 06:20:32;;;;;;;142.38;37.95;;;;;;;;;;4997966;28;20034;-76
2023/12/02 06:23:00;;;;;;;146.50;40.38;;;;;;;;;;4997518;28;20116;-76
2023/12/02 06:25:26;;;;;;;142.40;37.80;;;;;;;;;;4997498;28;20117;-77
2023/12/02 06:27:52;;;;;;;131.15;37.63;;;;;;;;;;5015668;28;20041;-76
2023/12/02 06:30:18;;;;;;;131.98;36.53;;;;;;;;;;5018250;28;20402;-78
2023/12/02 06:32:45;;;;;;;126.43;37.78;;;;;;;;;;5021082;28;20140;-75
2023/12/02 06:35:12;;;;;;;143.90;41.67;;;;;;;;;;4991354;28;20283;-76
2023/12/02 06:37:38;;;;;;;134.10;38.38;;;;;;;;;;5022688;28;20033;-76
2023/12/02 06:40:05;;;;;;;139.65;38.85;;;;;;;;;;5011288;28;20116;-76
2023/12/02 06:42:31;;;;;;;134.48;40.92;;;;;;;;;;5010144;28;20037;-76
2023/12/02 06:44:57;;;;;;;155.73;42.72;;;;;;;;;;5013665;28;20184;-75
2023/12/02 06:47:23;;;;;;;147.60;39.80;;;;;;;;;;5016447;28;20033;-74
2023/12/02 06:49:49;;;;;;;132.60;37.90;;;;;;;;;;5023306;28;20447;-77
2023/12/02 06:52:15;;;;;;;146.70;38.78;;;;;;;;;;5015592;28;20034;-76
2023/12/02 06:54:42;;;;;;;149.52;40.63;;;;;;;;;;5004056;28;20522;-77
2023/12/02 06:57:08;;;;;;;163.10;40.63;;;;;;;;;;5015013;28;20034;-76
2023/12/02 06:59:34;;;;;;;152.18;40.30;;;;;;;;;;5012463;28;20041;-77
2023/12/02 07:02:00;;;;;;;152.25;39.53;;;;;;;;;;5011512;28;20041;-78
2023/12/02 07:04:27;;;;;;;139.77;37.67;;;;;;;;;;5012763;28;20040;-77
2023/12/02 07:06:53;;;;;;;149.40;38.75;;;;;;;;;;5010509;28;20491;-75
2023/12/02 07:09:19;;;;;;;149.60;39.88;;;;;;;;;;5013176;28;20036;-78
2023/12/02 07:11:45;;;;;;;149.55;38.13;;;;;;;;;;5011211;28;20030;-77
2023/12/02 07:14:12;;;;;;;145.30;37.53;;;;;;;;;;5010906;28;20391;-77
2023/12/02 07:16:38;;;;;;;137.85;36.90;;;;;;;;;;4994105;28;20034;-77
2023/12/02 07:19:04;;;;;;;140.05;35.47;;;;;;;;;;5010948;28;20018;-76
2023/12/02 07:21:30;;;;;;;148.38;38.20;;;;;;;;;;5012094;28;20068;-77
2023/12/02 07:23:57;;;;;;;130.05;36.60;;;;;;;;;;5010427;28;20033;-76
2023/12/02 07:26:23;;;;;;;130.60;35.17;;;;;;;;;;5010775;28;20144;-76
2023/12/02 07:28:49;;;;;;;131.90;36.35;;;;;;;;;;4993807;28;20025;-76
2023/12/02 07:31:16;;;;;;;141.90;36.25;;;;;;;;;;5008391;28;20092;-75
2023/12/02 07:33:42;;;;;;;140.80;35.88;;;;;;;;;;5008163;28;20042;-76
2023/12/02 07:36:09;;;;;;;137.23;35.75;;;;;;;;;;5013540;28;20505;-77
2023/12/02 07:38:35;;;;;;;134.38;38.28;;;;;;;;;;5013483;28;20038;-76
2023/12/02 07:41:01;;;;;;;138.30;37.72;;;;;;;;;;5005161;28;20114;-77
2023/12/02 07:43:29;;;;;;;141.88;39.58;;;;;;;;;;5019842;28;20029;-76
2023/12/02 07:45:55;;;;;;;136.52;38.17;;;;;;;;;;5010223;28;20042;-75
2023/12/02 07:48:21;;;;;;;135.07;39.17;;;;;;;;;;5014718;28;20033;-76
2023/12/02 07:50:47;;;;;;;131.02;38.05;;;;;;;;;;5015868;28;20105;-76
2023/12/02 07:53:13;;;;;;;141.55;38.80;;;;;;;;;;4973101;28;20061;-77
2023/12/02 07:55:39;;;;;;;129.02;38.33;;;;;;;;;;4989102;28;20363;-77
2023/12/02 07:58:05;;;;;;;132.60;36.47;;;;;;;;;;4992777;28;20045;-78
2023/12/02 08:00:32;;;;;;;135.32;36.88;;;;;;;;;;4998864;28;20046;-77
2023/12/02 08:02:58;;;;;;;122.75;35.60;;;;;;;;;;4990350;28;20137;-78
2023/12/02 08:05:24;;;;;;;145.25;38.03;;;;;;;;;;5011337;28;20858;-76
2023/12/02 08:07:51;;;;;;;137.13;37.72;;;;;;;;;;5009983;28;20030;-76
2023/12/02 08:10:17;;;;;;;144.15;40.75;;;;;;;;;;5012159;28;20156;-77
2023/12/02 08:12:43;;;;;;;153.30;40.20;;;;;;;;;;5003500;28;20017;-76
2023/12/02 08:15:10;;;;;;;151.63;43.10;;;;;;;;;;5011905;28;20073;-78
2023/12/02 08:17:36;;;;;;;157.13;42.25;;;;;;;;;;5010956;28;20165;-78
2023/12/02 08:20:05;;;;;;;160.05;42.50;;;;;;;;;;5013317;28;20025;-77
2023/12/02 08:22:32;;;;;;;162.98;43.15;;;;;;;;;;5013274;28;20025;-77
2023/12/02 08:24:58;;;;;;;166.63;44.67;;;;;;;;;;5001040;28;20067;-77
2023/12/02 08:27:24;;;;;;;167.25;45.88;;;;;;;;;;5005150;28;20394;-76
2023/12/02 08:29:51;;;;;;;155.50;43.70;;;;;;;;;;5025710;28;20038;-77
2023/12/02 08:32:17;;;;;;;160.50;43.92;;;;;;;;;;4997357;28;20136;-77
2023/12/02 08:34:43;;;;;;;159.77;43.97;;;;;;;;;;4987588;28;20061;-76
2023/12/02 08:37:09;;;;;;;155.85;45.97;;;;;;;;;;4984554;28;20039;-76
2023/12/02 08:39:37;;;;;;;145.48;44.13;;;;;;;;;;5010313;28;20128;-76
2023/12/02 08:42:03;;;;;;;152.43;44.65;;;;;;;;;;5010377;28;20120;-76
2023/12/02 08:44:29;;;;;;;153.55;45.05;;;;;;;;;;5018112;28;20029;-75
2023/12/02 08:46:56;;;;;;;140.57;44.55;;;;;;;;;;5020208;28;20099;-76
2023/12/02 08:49:22;;;;;;;147.02;43.03;;;;;;;;;;4993034;28;20084;-76
2023/12/02 08:51:48;;;;;;;146.50;45.55;;;;;;;;;;5022975;28;20036;-75
2023/12/02 08:54:14;;;;;;;144.45;44.08;;;;;;;;;;5012091;28;20026;-77
2023/12/02 08:56:40;;;;;;;150.02;43.85;;;;;;;;;;5007475;28;20257;-76
2023/12/02 08:59:07;;;;;;;137.20;44.15;;;;;;;;;;4991483;28;20034;-76
2023/12/02 09:01:34;;;;;;;147.63;45.70;;;;;;;;;;5008105;28;20034;-76
2023/12/02 09:04:00;;;;;;;147.18;44.47;;;;;;;;;;4991494;28;20594;-75
2023/12/02 09:06:26;;;;;;;145.05;45.60;;;;;;;;;;4978465;28;20462;-76
2023/12/02 09:08:53;;;;;;;145.15;43.45;;;;;;;;;;5022401;28;20042;-77
2023/12/02 09:11:19;;;;;;;141.10;44.95;;;;;;;;;;5024211;28;20022;-75
2023/12/02 09:13:46;;;;;;;143.73;44.50;;;;;;;;;;4977702;28;20133;-77
2023/12/02 09:16:15;;;;;;;128.90;43.53;;;;;;;;;;5006273;28;20042;-76
2023/12/02 09:18:41;;;;;;;130.63;42.53;;;;;;;;;;4998228;28;20042;-75
2023/12/02 09:21:23;;;;;;;138.60;42.80;;;;;;;;;;5014514;28;20029;-76
2023/12/02 09:23:51;;;;;;;131.98;42.60;;;;;;;;;;5009213;28;20099;-77
2023/12/02 09:26:28;;;;;;;128.70;43.00;;;;;;;;;;5018364;28;20132;-76
2023/12/02 09:28:56;;;;;;;128.10;42.33;;;;;;;;;;5001557;28;20029;-77
2023/12/02 09:31:24;;;;;;;131.55;43.75;;;;;;;;;;4994379;28;20045;-77
2023/12/02 09:34:16;;;;;;;122.13;42.22;;;;;;;;;;4994498;28;20506;-76
2023/12/02 09:36:42;;;;;;;118.53;41.80;;;;;;;;;;4968140;28;20157;-77
2023/12/02 09:39:11;;;;;;;129.15;45.10;;;;;;;;;;5010092;28;20034;-76
2023/12/02 09:41:44;;;;;;;119.20;42.75;;;;;;;;;;5018494;28;20064;-75
2023/12/02 09:44:13;;;;;;;115.43;41.58;;;;;;;;;;5016026;28;20256;-76
2023/12/02 09:46:55;;;;;;;119.82;42.55;;;;;;;;;;4996758;28;20019;-76
2023/12/02 09:49:29;;;;;;;119.18;41.08;;;;;;;;;;5010599;28;20034;-77
2023/12/02 09:52:16;;;;;;;113.75;41.90;;;;;;;;;;5005368;28;20368;-76
2023/12/02 09:54:48;;;;;;;117.60;41.22;;;;;;;;;;5017140;28;20149;-76
2023/12/02 09:57:22;;;;;;;123.00;40.90;;;;;;;;;;5003818;28;20311;-76
2023/12/02 09:59:57;;;;;;;120.60;40.50;;;;;;;;;;5007351;28;20038;-76
2023/12/02 10:02:33;;;;;;;107.70;39.55;;;;;;;;;;5008988;28;20045;-76
2023/12/02 10:05:12;;;;;;;107.55;39.60;;;;;;;;;;5009219;28;20492;-77
2023/12/02 10:07:41;;;;;;;113.90;40.05;;;;;;;;;;5009575;28;20038;-76
2023/12/02 10:10:10;;;;;;;108.68;40.10;;;;;;;;;;5012334;28;20395;-77
2023/12/02 10:12:40;;;;;;;114.20;39.92;;;;;;;;;;5012398;28;20030;-77
2023/12/02 10:15:10;;;;;;;112.55;39.92;;;;;;;;;;4994735;28;20088;-76
2023/12/02 10:18:02;;;;;;;103.38;38.50;;;;;;;;;;5000961;28;20029;-74
2023/12/02 10:20:29;;;;;;;98.68;38.88;;;;;;;;;;5024515;28;20061;-76
2023/12/02 10:23:01;;;;;;;98.35;38.13;;;;;;;;;;5010535;28;20038;-76
2023/12/02 10:25:27;;;;;;;96.50;37.67;;;;;;;;;;5012056;28;20048;-76
2023/12/02 10:27:55;;;;;;;94.90;39.50;;;;;;;;;;5011295;28;20800;-75
2023/12/02 10:30:22;;;;;;;90.60;37.40;;;;;;;;;;5012282;28;20036;-76
2023/12/02 10:32:48;;;;;;;97.38;36.33;;;;;;;;;;5011021;28;20034;-76
2023/12/02 10:35:18;;;;;;;87.63;35.97;;;;;;;;;;5011886;28;20030;-77
2023/12/02 10:37:45;;;;;;;83.38;34.50;;;;;;;;;;4994002;28;20050;-77
2023/12/02 10:40:13;;;;;;;90.53;35.78;;;;;;;;;;5010195;28;20704;-76
2023/12/02 10:42:55;;;;;;;87.38;35.20;;;;;;;;;;5011132;28;20030;-77
2023/12/02 10:45:22;;;;;;;82.80;35.22;;;;;;;;;;5002837;28;20030;-76
2023/12/02 10:47:49;;;;;;;81.47;33.78;;;;;;;;;;4994502;28;20034;-76
2023/12/02 10:50:17;;;;;;;76.05;33.88;;;;;;;;;;5011977;28;20037;-77
2023/12/02 10:52:55;;;;;;;79.63;33.85;;;;;;;;;;5024149;28;20080;-76
2023/12/02 10:55:21;;;;;;;84.43;35.60;;;;;;;;;;5002650;28;20132;-77
2023/12/02 10:57:47;;;;;;;79.20;33.38;;;;;;;;;;5024530;28;20075;-76
2023/12/02 11:00:16;;;;;;;78.05;33.78;;;;;;;;;;5015978;28;20045;-75
2023/12/02 11:02:45;;;;;;;78.57;32.67;;;;;;;;;;5013815;28;20034;-76
2023/12/02 11:05:16;;;;;;;73.85;32.67;;;;;;;;;;4997105;28;20037;-76
2023/12/02 11:07:48;;;;;;;75.20;33.40;;;;;;;;;;5016825;28;20037;-76
2023/12/02 11:10:17;;;;;;;80.95;33.47;;;;;;;;;;5016626;28;20034;-76
2023/12/02 11:12:55;;;;;;;71.72;33.40;;;;;;;;;;5004611;28;20494;-77
2023/12/02 11:15:22;;;;;;;82.45;34.70;;;;;;;;;;4991703;28;20030;-76
2023/12/02 11:17:49;;;;;;;76.93;33.70;;;;;;;;;;4991293;28;20100;-76
2023/12/02 11:20:34;;;;;;;85.93;33.53;;;;;;;;;;5003372;28;20079;-76
2023/12/02 11:23:19;;;;;;;80.10;34.17;;;;;;;;;;5009831;28;20034;-76
2023/12/02 11:25:52;;;;;;;81.60;34.20;;;;;;;;;;5011824;28;20026;-77
2023/12/02 11:28:24;;;;;;;79.20;35.30;;;;;;;;;;4984463;28;20120;-77
2023/12/02 11:30:59;;;;;;;82.97;35.10;;;;;;;;;;4992963;28;20503;-76
2023/12/02 11:33:42;;;;;;;85.60;36.05;;;;;;;;;;5005067;28;20113;-76
2023/12/02 11:36:11;;;;;;;90.88;36.35;;;;;;;;;;5014453;28;20390;-77
2023/12/02 11:38:43;;;;;;;89.75;37.17;;;;;;;;;;5002261;28;20030;-77
2023/12/02 11:41:18;;;;;;;85.70;37.28;;;;;;;;;;5010319;28;20049;-77
2023/12/02 11:43:44;;;;;;;91.40;39.13;;;;;;;;;;5015871;28;20095;-75
2023/12/02 11:46:18;;;;;;;93.53;37.75;;;;;;;;;;5012907;28;20618;-77
2023/12/02 11:48:53;;;;;;;92.65;38.15;;;;;;;;;;5003045;28;20029;-74
2023/12/02 11:51:37;;;;;;;95.38;39.13;;;;;;;;;;5021247;28;20026;-75
2023/12/02 11:54:25;;;;;;;89.68;38.08;;;;;;;;;;4991390;28;20022;-77
2023/12/02 11:57:02;;;;;;;88.32;38.67;;;;;;;;;;5011493;28;20022;-76
2023/12/02 11:59:32;;;;;;;81.30;36.22;;;;;;;;;;5023898;28;20029;-76
2023/12/02 12:02:17;;;;;;;83.45;37.08;;;;;;;;;;4995080;28;20029;-76
2023/12/02 12:05:02;;;;;;;81.93;37.63;;;;;;;;;;5015000;28;20033;-77
2023/12/02 12:07:30;;;;;;;88.03;38.65;;;;;;;;;;5008749;28;20036;-78
2023/12/02 12:10:07;;;;;;;87.47;38.42;;;;;;;;;;5026493;28;20038;-77
2023/12/02 12:12:34;;;;;;;85.95;37.90;;;;;;;;;;5013402;28;20046;-77
2023/12/02 12:15:01;;;;;;;72.28;34.40;;;;;;;;;;5005473;28;20041;-77
2023/12/02 12:17:28;;;;;;;69.68;34.88;;;;;;;;;;5014411;28;20394;-76
2023/12/02 12:19:59;;;;;;;70.40;34.20;;;;;;;;;;5021779;28;20048;-77
2023/12/02 12:22:28;;;;;;;69.47;32.03;;;;;;;;;;4990573;28;20495;-77
2023/12/02 12:24:55;;;;;;;67.72;32.67;;;;;;;;;;5009984;28;20034;-76
2023/12/02 12:27:21;;;;;;;68.53;32.67;;;;;;;;;;5009495;28;20082;-77
2023/12/02 12:29:54;;;;;;;72.60;33.67;;;;;;;;;;5014485;28;20030;-75
2023/12/02 12:32:20;;;;;;;71.95;33.17;;;;;;;;;;5019485;28;20046;-76
2023/12/02 12:34:46;;;;;;;66.15;31.20;;;;;;;;;;5000289;28;20084;-76
2023/12/02 12:37:16;;;;;;;66.32;31.33;;;;;;;;;;4993549;28;20064;-75
2023/12/02 12:39:44;;;;;;;78.32;35.28;;;;;;;;;;5008364;28;20038;-75
2023/12/02 12:42:11;;;;;;;70.20;34.17;;;;;;;;;;4992888;28;20542;-76
2023/12/02 12:44:40;;;;;;;72.72;33.35;;;;;;;;;;5023680;28;20038;-76
2023/12/02 12:47:13;;;;;;;73.45;33.80;;;;;;;;;;5008658;28;20034;-76
2023/12/02 12:49:43;;;;;;;69.75;32.22;;;;;;;;;;5012306;28;20478;-77
2023/12/02 12:52:13;;;;;;;71.97;34.25;;;;;;;;;;5014883;28;20017;-77
2023/12/02 12:54:40;;;;;;;68.00;32.85;;;;;;;;;;5013298;28;20106;-77
2023/12/02 12:57:10;;;;;;;69.60;32.80;;;;;;;;;;5012344;28;20123;-77
2023/12/02 12:59:37;;;;;;;74.82;34.70;;;;;;;;;;5020443;28;20029;-77
2023/12/02 13:02:20;;;;;;;73.10;34.83;;;;;;;;;;5013145;28;20120;-77
2023/12/02 13:05:06;;;;;;;73.72;35.30;;;;;;;;;;4995053;28;20041;-76
2023/12/02 13:07:53;;;;;;;81.25;36.60;;;;;;;;;;5012414;28;20457;-76
2023/12/02 13:10:19;;;;;;;78.20;34.72;;;;;;;;;;5019360;28;20029;-77
2023/12/02 13:12:48;;;;;;;74.25;35.08;;;;;;;;;;5021443;28;20060;-77
2023/12/02 13:15:20;;;;;;;74.65;35.10;;;;;;;;;;5025375;28;20026;-77
2023/12/02 13:17:47;;;;;;;78.95;36.50;;;;;;;;;;5016146;28;20054;-75
2023/12/02 13:20:17;;;;;;;69.90;34.10;;;;;;;;;;5014998;28;20026;-76
2023/12/02 13:22:45;;;;;;;71.78;34.42;;;;;;;;;;5010469;28;20037;-77
2023/12/02 13:25:18;;;;;;;79.00;35.70;;;;;;;;;;5002349;28;20029;-76
2023/12/02 13:28:07;;;;;;;83.25;35.47;;;;;;;;;;5027060;28;20471;-76
2023/12/02 13:30:36;;;;;;;80.85;36.97;;;;;;;;;;5003063;28;20420;-76
2023/12/02 13:33:12;;;;;;;74.80;35.13;;;;;;;;;;5016747;28;20109;-75
2023/12/02 13:35:41;;;;;;;79.50;34.88;;;;;;;;;;5020522;28;20040;-77
2023/12/02 13:38:17;;;;;;;73.93;34.90;;;;;;;;;;5021813;28;20115;-77
2023/12/02 13:40:51;;;;;;;75.95;34.97;;;;;;;;;;4996963;28;20419;-76
2023/12/02 13:43:19;;;;;;;76.80;35.88;;;;;;;;;;5022383;28;20140;-77
2023/12/02 13:45:51;;;;;;;74.80;35.42;;;;;;;;;;5008478;28;20033;-76
2023/12/02 13:48:17;;;;;;;72.55;34.80;;;;;;;;;;4996764;28;20088;-76
2023/12/02 13:50:48;;;;;;;73.10;33.28;;;;;;;;;;5003597;28;20116;-76
2023/12/02 13:53:17;;;;;;;70.97;34.60;;;;;;;;;;5015686;28;20045;-76
2023/12/02 13:56:04;;;;;;;76.55;35.30;;;;;;;;;;5006036;28;20036;-76
2023/12/02 13:58:46;;;;;;;72.45;33.38;;;;;;;;;;5013070;28;20027;-76
2023/12/02 14:01:20;;;;;;;70.60;32.90;;;;;;;;;;5011102;28;20084;-77
2023/12/02 14:03:56;;;;;;;72.70;34.20;;;;;;;;;;4997619;28;20030;-76
2023/12/02 14:06:28;;;;;;;68.18;33.13;;;;;;;;;;5021904;28;20108;-76
2023/12/02 14:08:56;;;;;;;71.72;33.38;;;;;;;;;;5013130;28;20175;-75
2023/12/02 14:11:28;;;;;;;70.10;33.05;;;;;;;;;;5019057;28;20030;-77
2023/12/02 14:14:20;;;;;;;69.07;33.17;;;;;;;;;;5015722;28;20424;-77
2023/12/02 14:16:58;;;;;;;71.78;33.90;;;;;;;;;;4996659;28;20084;-77
2023/12/02 14:19:33;;;;;;;66.82;32.97;;;;;;;;;;5023019;28;20095;-77